createdAt,value
2016-04-16T00:00:47.477Z,1000.27
2016-04-16T00:02:13.171Z,1000.22
2016-04-16T00:02:57.046Z,1000.16
2016-04-16T00:04:16.270Z,1000.16
2016-04-16T00:06:22.775Z,1000.12
2016-04-16T00:06:57.228Z,1000.06
2016-04-16T00:09:13.049Z,1000.01
2016-04-16T00:10:13.067Z,1000.02
2016-04-16T00:12:22.478Z,999.94
2016-04-16T00:13:22.496Z,999.97
2016-04-16T00:14:32.093Z,999.98
2016-04-16T00:15:32.112Z,999.98
2016-04-16T00:16:32.130Z,999.99
2016-04-16T00:17:57.837Z,999.97
2016-04-16T00:18:44.901Z,999.94
2016-04-16T00:19:32.185Z,999.9
2016-04-16T00:20:44.953Z,999.92
2016-04-16T00:23:00.787Z,999.9
2016-04-16T00:23:35.134Z,999.93
2016-04-16T00:25:00.824Z,999.89
2016-04-16T00:26:16.017Z,999.89
2016-04-16T00:27:16.034Z,999.92
2016-04-16T00:28:16.053Z,999.91
2016-04-16T00:29:41.744Z,999.89
2016-04-16T00:30:19.980Z,999.89
2016-04-16T00:31:19.983Z,999.85
2016-04-16T00:32:20.016Z,999.84
2016-04-16T00:33:20.019Z,999.83
2016-04-16T00:34:26.303Z,999.79
2016-04-16T00:35:26.322Z,999.81
2016-04-16T00:36:20.075Z,999.82
2016-04-16T00:37:42.358Z,999.81
2016-04-16T00:38:42.361Z,999.81
2016-04-16T00:39:55.129Z,999.76
2016-04-16T00:40:42.398Z,999.76
2016-04-16T00:42:01.619Z,999.78
2016-04-16T00:42:43.043Z,999.8
2016-04-16T00:44:08.124Z,999.73
2016-04-16T00:45:17.661Z,999.72
2016-04-16T00:46:17.679Z,999.66
2016-04-16T00:47:17.713Z,999.65
2016-04-16T00:48:17.716Z,999.63
2016-04-16T00:49:17.735Z,999.58
2016-04-16T00:50:17.753Z,999.55
2016-04-16T00:51:17.771Z,999.54
2016-04-16T00:52:17.789Z,999.52
2016-04-16T00:53:24.059Z,999.51
2016-04-16T00:54:17.811Z,999.49
2016-04-16T00:55:17.829Z,999.47
2016-04-16T00:56:37.051Z,999.48
2016-04-16T00:57:17.865Z,999.45
2016-04-16T00:58:17.884Z,999.45
2016-04-16T00:59:17.902Z,999.5
2016-04-16T01:00:17.920Z,999.48
2016-04-16T01:01:17.985Z,999.44
2016-04-16T01:02:17.941Z,999.42
2016-04-16T01:03:17.975Z,999.38
2016-04-16T01:04:17.978Z,999.43
2016-04-16T01:05:33.137Z,999.42
2016-04-16T01:06:33.155Z,999.39
2016-04-16T01:07:33.158Z,999.39
2016-04-16T01:08:33.176Z,999.36
2016-04-16T01:09:33.210Z,999.33
2016-04-16T01:10:33.213Z,999.3
2016-04-16T01:11:39.543Z,999.31
2016-04-16T01:12:33.249Z,999.28
2016-04-16T01:13:33.267Z,999.31
2016-04-16T01:14:33.286Z,999.3
2016-04-16T01:15:33.304Z,999.3
2016-04-16T01:16:33.323Z,999.25
2016-04-16T01:17:46.059Z,999.25
2016-04-16T01:18:33.343Z,999.2
2016-04-16T01:19:33.362Z,999.16
2016-04-16T01:20:33.380Z,999.16
2016-04-16T01:21:33.399Z,999.11
2016-04-16T01:22:33.417Z,999.14
2016-04-16T01:23:33.435Z,999.15
2016-04-16T01:24:33.453Z,999.1
2016-04-16T01:25:46.206Z,999.12
2016-04-16T01:26:33.521Z,999.09
2016-04-16T01:27:33.492Z,999.08
2016-04-16T01:28:46.245Z,999.06
2016-04-16T01:29:33.530Z,999.09
2016-04-16T01:30:33.547Z,999.04
2016-04-16T01:31:33.566Z,999.05
2016-04-16T01:32:33.584Z,999.03
2016-04-16T01:33:46.352Z,999.02
2016-04-16T01:34:59.277Z,999
2016-04-16T01:35:33.624Z,999
2016-04-16T01:36:33.641Z,999.01
2016-04-16T01:37:43.176Z,998.97
2016-04-16T01:39:08.866Z,998.99
2016-04-16T01:39:52.743Z,998.99
2016-04-16T01:41:11.968Z,998.93
2016-04-16T01:41:52.780Z,998.91
2016-04-16T01:43:18.473Z,998.88
2016-04-16T01:43:52.817Z,998.85
2016-04-16T01:44:52.882Z,998.89
2016-04-16T01:46:08.041Z,998.87
2016-04-16T01:47:08.076Z,998.85
2016-04-16T01:48:08.079Z,998.83
2016-04-16T01:49:08.112Z,998.8
2016-04-16T01:50:08.130Z,998.81
2016-04-16T01:51:14.495Z,998.79
2016-04-16T01:52:08.151Z,998.79
2016-04-16T01:53:08.169Z,998.79
2016-04-16T01:54:08.187Z,998.81
2016-04-16T01:55:08.206Z,998.84
2016-04-16T01:56:08.209Z,998.81
2016-04-16T01:57:08.243Z,998.78
2016-04-16T01:58:08.261Z,998.82
2016-04-16T01:59:14.531Z,998.76
2016-04-16T02:00:14.550Z,998.75
2016-04-16T02:01:08.300Z,998.72
2016-04-16T02:02:21.055Z,998.7
2016-04-16T02:03:14.593Z,998.67
2016-04-16T02:04:27.548Z,998.59
2016-04-16T02:05:08.361Z,998.54
2016-04-16T02:06:08.380Z,998.57
2016-04-16T02:07:08.398Z,998.49
2016-04-16T02:08:08.417Z,998.49
2016-04-16T02:09:08.434Z,998.55
2016-04-16T02:10:08.469Z,998.55
2016-04-16T02:11:08.472Z,998.54
2016-04-16T02:12:08.490Z,998.56
2016-04-16T02:13:09.103Z,998.6
2016-04-16T02:14:08.511Z,998.56
2016-04-16T02:15:09.139Z,998.6
2016-04-16T02:16:08.563Z,998.59
2016-04-16T02:17:08.566Z,998.62
2016-04-16T02:18:08.583Z,998.61
2016-04-16T02:19:21.339Z,998.49
2016-04-16T02:20:08.621Z,998.56
2016-04-16T02:21:34.313Z,998.53
2016-04-16T02:22:08.659Z,998.49
2016-04-16T02:24:18.246Z,998.48
2016-04-16T02:25:18.264Z,998.45
2016-04-16T02:26:18.282Z,998.42
2016-04-16T02:27:18.301Z,998.42
2016-04-16T02:28:18.303Z,998.41
2016-04-16T02:29:18.322Z,998.39
2016-04-16T02:30:18.356Z,998.39
2016-04-16T02:31:18.374Z,998.39
2016-04-16T02:32:18.392Z,998.36
2016-04-16T02:33:18.411Z,998.36
2016-04-16T02:34:24.678Z,998.31
2016-04-16T02:35:18.431Z,998.34
2016-04-16T02:36:18.450Z,998.28
2016-04-16T02:37:24.734Z,998.26
2016-04-16T02:38:18.487Z,998.24
2016-04-16T02:39:18.505Z,998.28
2016-04-16T02:40:18.508Z,998.29
2016-04-16T02:41:18.541Z,998.33
2016-04-16T02:42:18.560Z,998.31
2016-04-16T02:43:18.562Z,998.31
2016-04-16T02:44:18.621Z,998.3
2016-04-16T02:45:18.683Z,998.26
2016-04-16T02:46:18.759Z,998.3
2016-04-16T02:47:18.805Z,998.33
2016-04-16T02:48:18.866Z,998.36
2016-04-16T02:49:18.900Z,998.33
2016-04-16T02:50:18.934Z,998.31
2016-04-16T02:51:19.561Z,998.34
2016-04-16T02:52:44.673Z,998.39
2016-04-16T02:53:28.583Z,998.34
2016-04-16T02:54:28.591Z,998.36
2016-04-16T02:55:28.614Z,998.4
2016-04-16T02:56:28.655Z,998.35
2016-04-16T02:57:28.678Z,998.35
2016-04-16T02:58:28.686Z,998.34
2016-04-16T02:59:28.707Z,998.36
2016-04-16T03:00:28.743Z,998.36
2016-04-16T03:01:28.747Z,998.26
2016-04-16T03:02:28.769Z,998.23
2016-04-16T03:03:30.195Z,998.26
2016-04-16T03:04:28.807Z,998.21
2016-04-16T03:05:28.842Z,998.22
2016-04-16T03:06:28.845Z,998.15
2016-04-16T03:07:28.865Z,998.14
2016-04-16T03:08:28.883Z,998.07
2016-04-16T03:09:28.902Z,998.05
2016-04-16T03:10:50.358Z,998
2016-04-16T03:11:44.112Z,998.01
2016-04-16T03:12:44.131Z,998.07
2016-04-16T03:13:44.149Z,998.02
2016-04-16T03:14:44.167Z,998.02
2016-04-16T03:15:44.186Z,997.99
2016-04-16T03:16:44.204Z,997.99
2016-04-16T03:17:44.222Z,997.97
2016-04-16T03:18:44.241Z,997.97
2016-04-16T03:19:44.258Z,997.99
2016-04-16T03:20:56.997Z,998.04
2016-04-16T03:21:44.280Z,997.99
2016-04-16T03:22:44.298Z,998
2016-04-16T03:24:10.004Z,998
2016-04-16T03:24:44.335Z,997.94
2016-04-16T03:26:59.527Z,997.93
2016-04-16T03:27:59.546Z,997.93
2016-04-16T03:28:59.564Z,997.96
2016-04-16T03:30:12.317Z,997.95
2016-04-16T03:30:59.601Z,997.97
2016-04-16T03:31:59.619Z,997.94
2016-04-16T03:32:59.622Z,997.91
2016-04-16T03:33:59.656Z,997.86
2016-04-16T03:34:59.659Z,997.86
2016-04-16T03:35:59.692Z,997.85
2016-04-16T03:37:05.960Z,997.82
2016-04-16T03:37:59.729Z,997.84
2016-04-16T03:39:12.466Z,997.85
2016-04-16T03:40:06.015Z,997.83
2016-04-16T03:40:59.784Z,997.81
2016-04-16T03:41:59.787Z,997.82
2016-04-16T03:43:59.824Z,997.84
2016-04-16T03:44:59.842Z,997.81
2016-04-16T03:45:59.860Z,997.86
2016-04-16T03:46:59.878Z,997.84
2016-04-16T03:47:59.897Z,997.81
2016-04-16T03:48:59.915Z,997.79
2016-04-16T03:49:59.949Z,997.81
2016-04-16T03:50:59.936Z,997.78
2016-04-16T03:51:59.954Z,997.78
2016-04-16T03:53:06.254Z,997.77
2016-04-16T03:54:00.006Z,997.76
2016-04-16T03:55:00.009Z,997.75
2016-04-16T03:56:00.027Z,997.74
2016-04-16T03:57:00.046Z,997.75
2016-04-16T03:58:06.346Z,997.71
2016-04-16T03:59:25.757Z,997.77
2016-04-16T04:00:12.835Z,997.77
2016-04-16T04:01:00.212Z,997.73
2016-04-16T04:02:00.137Z,997.69
2016-04-16T04:03:00.202Z,997.69
2016-04-16T04:05:15.367Z,997.7
2016-04-16T04:06:15.370Z,997.7
2016-04-16T04:07:15.997Z,997.71
2016-04-16T04:08:15.421Z,997.73
2016-04-16T04:09:15.424Z,997.7
2016-04-16T04:10:28.177Z,997.72
2016-04-16T04:11:15.462Z,997.73
2016-04-16T04:12:15.479Z,997.73
2016-04-16T04:13:21.764Z,997.69
2016-04-16T04:14:15.516Z,997.64
2016-04-16T04:15:21.800Z,997.63
2016-04-16T04:16:15.647Z,997.59
2016-04-16T04:17:28.305Z,997.61
2016-04-16T04:18:15.573Z,997.57
2016-04-16T04:19:41.264Z,997.55
2016-04-16T04:20:25.142Z,997.54
2016-04-16T04:21:34.973Z,997.55
2016-04-16T04:22:34.975Z,997.53
2016-04-16T04:23:34.994Z,997.52
2016-04-16T04:24:50.183Z,997.58
2016-04-16T04:25:50.202Z,997.58
2016-04-16T04:27:02.954Z,997.57
2016-04-16T04:28:00.394Z,997.56
2016-04-16T04:30:03.557Z,997.58
2016-04-16T04:32:18.752Z,997.62
2016-04-16T04:33:18.770Z,997.62
2016-04-16T04:34:18.774Z,997.65
2016-04-16T04:35:18.791Z,997.59
2016-04-16T04:36:18.810Z,997.62
2016-04-16T04:37:18.844Z,997.56
2016-04-16T04:38:18.846Z,997.61
2016-04-16T04:39:18.880Z,997.57
2016-04-16T04:40:18.882Z,997.57
2016-04-16T04:41:18.901Z,997.63
2016-04-16T04:42:18.919Z,997.62
2016-04-16T04:43:25.204Z,997.55
2016-04-16T04:44:18.956Z,997.56
2016-04-16T04:45:18.975Z,997.54
2016-04-16T04:46:18.993Z,997.53
2016-04-16T04:47:19.011Z,997.53
2016-04-16T04:48:44.701Z,997.53
2016-04-16T04:49:28.594Z,997.55
2016-04-16T04:50:28.613Z,997.53
2016-04-16T04:51:28.631Z,997.55
2016-04-16T04:52:28.650Z,997.55
2016-04-16T04:53:28.668Z,997.58
2016-04-16T04:54:28.686Z,997.56
2016-04-16T04:55:41.439Z,997.52
2016-04-16T04:56:28.707Z,997.56
2016-04-16T04:57:28.741Z,997.54
2016-04-16T04:58:28.743Z,997.56
2016-04-16T04:59:28.763Z,997.59
2016-04-16T05:00:28.780Z,997.58
2016-04-16T05:01:28.799Z,997.6
2016-04-16T05:02:41.567Z,997.57
2016-04-16T05:03:28.835Z,997.55
2016-04-16T05:04:28.854Z,997.52
2016-04-16T05:05:28.871Z,997.55
2016-04-16T05:06:28.890Z,997.58
2016-04-16T05:07:41.643Z,997.56
2016-04-16T05:08:28.930Z,997.61
2016-04-16T05:09:54.620Z,997.62
2016-04-16T05:10:28.966Z,997.66
2016-04-16T05:12:29.004Z,997.65
2016-04-16T05:13:29.021Z,997.63
2016-04-16T05:14:41.774Z,997.61
2016-04-16T05:15:29.059Z,997.64
2016-04-16T05:16:29.076Z,997.63
2016-04-16T05:17:41.828Z,997.61
2016-04-16T05:18:29.112Z,997.59
2016-04-16T05:19:29.131Z,997.59
2016-04-16T05:20:32.337Z,997.58
2016-04-16T05:21:57.918Z,997.59
2016-04-16T05:22:32.296Z,997.61
2016-04-16T05:24:35.192Z,997.58
2016-04-16T05:25:35.211Z,997.6
2016-04-16T05:26:44.759Z,997.58
2016-04-16T05:28:59.953Z,997.56
2016-04-16T05:29:59.971Z,997.62
2016-04-16T05:30:59.989Z,997.64
2016-04-16T05:32:12.742Z,997.63
2016-04-16T05:33:00.026Z,997.71
2016-04-16T05:34:25.718Z,997.7
2016-04-16T05:35:00.062Z,997.69
2016-04-16T05:37:00.099Z,997.71
2016-04-16T05:38:00.118Z,997.72
2016-04-16T05:39:01.541Z,997.72
2016-04-16T05:40:00.154Z,997.69
2016-04-16T05:41:00.172Z,997.68
2016-04-16T05:42:00.191Z,997.73
2016-04-16T05:43:00.209Z,997.69
2016-04-16T05:44:01.634Z,997.73
2016-04-16T05:45:00.245Z,997.7
2016-04-16T05:46:19.454Z,997.74
2016-04-16T05:47:03.188Z,997.75
2016-04-16T05:48:22.398Z,997.76
2016-04-16T05:50:09.368Z,997.79
2016-04-16T05:52:18.954Z,997.82
2016-04-16T05:53:18.973Z,997.78
2016-04-16T05:54:22.913Z,997.78
2016-04-16T05:55:22.931Z,997.8
2016-04-16T05:56:32.606Z,997.8
2016-04-16T05:57:32.624Z,997.75
2016-04-16T05:58:32.642Z,997.76
2016-04-16T05:59:32.660Z,997.77
2016-04-16T06:00:32.680Z,997.74
2016-04-16T06:01:32.697Z,997.73
2016-04-16T06:02:32.716Z,997.75
2016-04-16T06:03:32.733Z,997.74
2016-04-16T06:04:32.752Z,997.73
2016-04-16T06:05:32.771Z,997.69
2016-04-16T06:06:32.788Z,997.71
2016-04-16T06:07:32.807Z,997.7
2016-04-16T06:08:32.841Z,997.68
2016-04-16T06:09:32.843Z,997.69
2016-04-16T06:10:32.862Z,997.66
2016-04-16T06:11:32.880Z,997.67
2016-04-16T06:12:32.915Z,997.69
2016-04-16T06:13:32.933Z,997.73
2016-04-16T06:14:32.935Z,997.64
2016-04-16T06:15:32.970Z,997.73
2016-04-16T06:16:32.988Z,997.76
2016-04-16T06:17:33.007Z,997.78
2016-04-16T06:18:33.024Z,997.74
2016-04-16T06:19:33.043Z,997.85
2016-04-16T06:20:33.061Z,997.84
2016-04-16T06:21:33.095Z,997.8
2016-04-16T06:22:33.097Z,997.73
2016-04-16T06:23:33.117Z,997.71
2016-04-16T06:24:33.150Z,997.71
2016-04-16T06:25:33.168Z,997.74
2016-04-16T06:26:33.187Z,997.73
2016-04-16T06:27:33.205Z,997.75
2016-04-16T06:28:33.238Z,997.76
2016-04-16T06:29:52.445Z,997.79
2016-04-16T06:30:33.260Z,997.77
2016-04-16T06:31:33.294Z,997.8
2016-04-16T06:32:33.311Z,997.79
2016-04-16T06:33:33.330Z,997.82
2016-04-16T06:34:33.349Z,997.8
2016-04-16T06:35:33.366Z,997.81
2016-04-16T06:36:33.402Z,997.81
2016-04-16T06:37:33.419Z,997.76
2016-04-16T06:38:33.438Z,997.73
2016-04-16T06:39:33.471Z,997.64
2016-04-16T06:40:33.490Z,997.7
2016-04-16T06:41:33.508Z,997.68
2016-04-16T06:42:33.527Z,997.68
2016-04-16T06:43:33.546Z,997.65
2016-04-16T06:44:33.579Z,997.71
2016-04-16T06:45:33.597Z,997.73
2016-04-16T06:46:33.631Z,997.71
2016-04-16T06:47:33.649Z,997.71
2016-04-16T06:48:33.652Z,997.76
2016-04-16T06:49:33.670Z,997.66
2016-04-16T06:50:33.689Z,997.71
2016-04-16T06:51:33.707Z,997.74
2016-04-16T06:52:33.741Z,997.71
2016-04-16T06:53:33.759Z,997.65
2016-04-16T06:54:33.778Z,997.7
2016-04-16T06:55:33.828Z,997.72
2016-04-16T06:56:33.830Z,997.71
2016-04-16T06:57:33.989Z,997.69
2016-04-16T06:58:33.867Z,997.74
2016-04-16T06:59:33.884Z,997.74
2016-04-16T07:00:46.637Z,997.78
2016-04-16T07:01:33.922Z,997.73
2016-04-16T07:02:56.283Z,997.75
2016-04-16T07:03:37.083Z,997.66
2016-04-16T07:05:52.369Z,997.6
2016-04-16T07:06:52.403Z,997.64
2016-04-16T07:08:18.078Z,997.59
2016-04-16T07:09:01.955Z,997.61
2016-04-16T07:10:02.177Z,997.58
2016-04-16T07:11:14.742Z,997.59
2016-04-16T07:12:02.167Z,997.61
2016-04-16T07:13:02.045Z,997.62
2016-04-16T07:14:02.218Z,997.53
2016-04-16T07:15:02.082Z,997.57
2016-04-16T07:16:02.115Z,997.53
2016-04-16T07:17:02.134Z,997.57
2016-04-16T07:18:02.152Z,997.48
2016-04-16T07:19:02.170Z,997.58
2016-04-16T07:20:02.204Z,997.53
2016-04-16T07:21:02.315Z,997.62
2016-04-16T07:22:02.225Z,997.6
2016-04-16T07:23:02.259Z,997.6
2016-04-16T07:24:02.277Z,997.58
2016-04-16T07:25:02.311Z,997.55
2016-04-16T07:26:02.329Z,997.58
2016-04-16T07:27:02.348Z,997.55
2016-04-16T07:28:02.366Z,997.53
2016-04-16T07:29:02.384Z,997.57
2016-04-16T07:30:02.450Z,997.59
2016-04-16T07:31:02.422Z,997.55
2016-04-16T07:32:02.456Z,997.63
2016-04-16T07:33:02.473Z,997.57
2016-04-16T07:34:02.492Z,997.58
2016-04-16T07:35:02.510Z,997.63
2016-04-16T07:36:02.544Z,997.63
2016-04-16T07:37:15.297Z,997.61
2016-04-16T07:38:02.565Z,997.63
2016-04-16T07:39:02.599Z,997.69
2016-04-16T07:40:02.616Z,997.66
2016-04-16T07:41:28.311Z,997.67
2016-04-16T07:42:08.936Z,997.68
2016-04-16T07:43:02.687Z,997.7
2016-04-16T07:44:15.424Z,997.6
2016-04-16T07:45:02.709Z,997.67
2016-04-16T07:46:02.743Z,997.58
2016-04-16T07:47:02.761Z,997.64
2016-04-16T07:48:02.780Z,997.64
2016-04-16T07:49:02.798Z,997.7
2016-04-16T07:50:02.832Z,997.66
2016-04-16T07:51:02.834Z,997.7
2016-04-16T07:52:02.868Z,997.68
2016-04-16T07:53:15.621Z,997.73
2016-04-16T07:54:03.515Z,997.69
2016-04-16T07:55:22.129Z,997.77
2016-04-16T07:56:02.957Z,997.8
2016-04-16T07:57:02.976Z,997.78
2016-04-16T07:58:15.745Z,997.84
2016-04-16T07:59:03.011Z,997.88
2016-04-16T08:00:28.721Z,997.82
2016-04-16T08:01:03.065Z,997.87
2016-04-16T08:02:03.083Z,997.9
2016-04-16T08:03:03.100Z,997.87
2016-04-16T08:04:03.135Z,997.85
2016-04-16T08:05:03.153Z,997.85
2016-04-16T08:06:03.172Z,997.87
2016-04-16T08:07:03.408Z,997.92
2016-04-16T08:08:03.208Z,997.96
2016-04-16T08:09:15.977Z,997.88
2016-04-16T08:10:03.261Z,997.91
2016-04-16T08:11:03.294Z,997.93
2016-04-16T08:12:03.297Z,997.94
2016-04-16T08:13:03.315Z,998
2016-04-16T08:14:03.349Z,998.02
2016-04-16T08:15:03.368Z,997.95
2016-04-16T08:16:03.401Z,997.92
2016-04-16T08:17:03.425Z,998.04
2016-04-16T08:18:03.443Z,997.99
2016-04-16T08:19:03.462Z,997.98
2016-04-16T08:20:03.496Z,998.03
2016-04-16T08:21:03.498Z,998.06
2016-04-16T08:22:03.531Z,998.08
2016-04-16T08:23:03.551Z,998.06
2016-04-16T08:24:03.568Z,998.1
2016-04-16T08:25:03.587Z,998.1
2016-04-16T08:26:03.605Z,998.19
2016-04-16T08:27:03.639Z,998.15
2016-04-16T08:28:03.673Z,998.14
2016-04-16T08:29:22.897Z,998.22
2016-04-16T08:30:16.444Z,998.34
2016-04-16T08:31:03.728Z,998.24
2016-04-16T08:32:03.747Z,998.19
2016-04-16T08:33:03.764Z,998.25
2016-04-16T08:34:03.783Z,998.26
2016-04-16T08:35:03.817Z,998.2
2016-04-16T08:36:03.835Z,998.28
2016-04-16T08:37:03.853Z,998.22
2016-04-16T08:38:03.872Z,998.24
2016-04-16T08:39:03.905Z,998.31
2016-04-16T08:40:03.924Z,998.29
2016-04-16T08:41:16.677Z,998.19
2016-04-16T08:42:03.976Z,998.26
2016-04-16T08:43:29.669Z,998.28
2016-04-16T08:44:04.013Z,998.29
2016-04-16T08:45:04.032Z,998.34
2016-04-16T08:46:04.066Z,998.29
2016-04-16T08:47:04.084Z,998.33
2016-04-16T08:48:04.102Z,998.38
2016-04-16T08:49:04.120Z,998.45
2016-04-16T08:50:04.138Z,998.46
2016-04-16T08:51:04.157Z,998.4
2016-04-16T08:52:04.191Z,998.46
2016-04-16T08:53:04.225Z,998.57
2016-04-16T08:54:04.243Z,998.56
2016-04-16T08:55:04.262Z,998.57
2016-04-16T08:56:10.545Z,998.59
2016-04-16T08:57:04.314Z,998.57
2016-04-16T08:58:10.581Z,998.61
2016-04-16T08:59:04.334Z,998.55
2016-04-16T09:00:30.043Z,998.6
2016-04-16T09:01:04.387Z,998.63
2016-04-16T09:02:04.405Z,998.57
2016-04-16T09:03:04.423Z,998.57
2016-04-16T09:04:04.442Z,998.71
2016-04-16T09:05:04.460Z,998.67
2016-04-16T09:06:04.510Z,998.64
2016-04-16T09:07:04.513Z,998.63
2016-04-16T09:08:04.547Z,998.69
2016-04-16T09:09:04.564Z,998.72
2016-04-16T09:10:04.583Z,998.77
2016-04-16T09:11:04.601Z,998.83
2016-04-16T09:12:10.885Z,998.67
2016-04-16T09:13:04.654Z,998.63
2016-04-16T09:14:04.671Z,998.66
2016-04-16T09:15:04.690Z,998.7
2016-04-16T09:16:04.708Z,998.67
2016-04-16T09:17:08.055Z,998.68
2016-04-16T09:18:08.089Z,998.84
2016-04-16T09:19:17.637Z,998.82
2016-04-16T09:20:17.656Z,998.79
2016-04-16T09:21:30.490Z,998.81
2016-04-16T09:22:17.709Z,998.84
2016-04-16T09:23:17.726Z,998.8
2016-04-16T09:24:17.762Z,998.92
2016-04-16T09:25:17.779Z,998.82
2016-04-16T09:26:17.798Z,998.8
2016-04-16T09:27:17.816Z,998.79
2016-04-16T09:28:17.850Z,998.92
2016-04-16T09:29:17.868Z,998.82
2016-04-16T09:30:33.093Z,998.91
2016-04-16T09:31:33.111Z,998.89
2016-04-16T09:32:45.879Z,998.89
2016-04-16T09:33:33.163Z,998.94
2016-04-16T09:34:52.400Z,998.95
2016-04-16T09:35:36.293Z,999.03
2016-04-16T09:36:36.311Z,999.05
2016-04-16T09:37:55.549Z,999.09
2016-04-16T09:38:36.364Z,999
2016-04-16T09:39:36.383Z,999.04
2016-04-16T09:40:37.010Z,999.16
2016-04-16T09:41:36.435Z,998.96
2016-04-16T09:42:36.452Z,998.99
2016-04-16T09:43:36.487Z,999.08
2016-04-16T09:44:36.489Z,999.04
2016-04-16T09:45:49.367Z,998.95
2016-04-16T09:46:36.541Z,998.95
2016-04-16T09:47:55.826Z,998.88
2016-04-16T09:48:39.703Z,998.86
2016-04-16T09:49:39.737Z,998.92
2016-04-16T09:50:39.756Z,998.98
2016-04-16T09:51:39.805Z,998.97
2016-04-16T09:52:39.808Z,998.9
2016-04-16T09:53:39.826Z,999.03
2016-04-16T09:54:39.845Z,998.94
2016-04-16T09:55:39.878Z,998.96
2016-04-16T09:56:39.897Z,998.86
2016-04-16T09:57:39.915Z,998.85
2016-04-16T09:58:39.964Z,998.8
2016-04-16T10:00:05.655Z,998.86
2016-04-16T10:00:41.407Z,998.92
2016-04-16T10:02:05.692Z,998.87
2016-04-16T10:02:40.054Z,998.98
2016-04-16T10:04:55.277Z,998.95
2016-04-16T10:05:55.296Z,999.04
2016-04-16T10:08:10.505Z,998.93
2016-04-16T10:09:10.539Z,998.86
2016-04-16T10:10:10.557Z,998.9
2016-04-16T10:11:10.575Z,998.93
2016-04-16T10:12:10.594Z,998.82
2016-04-16T10:13:10.611Z,998.74
2016-04-16T10:14:29.852Z,998.82
2016-04-16T10:15:10.664Z,998.86
2016-04-16T10:16:36.388Z,999.01
2016-04-16T10:17:10.716Z,998.89
2016-04-16T10:18:10.735Z,998.95
2016-04-16T10:19:10.768Z,998.95
2016-04-16T10:20:10.787Z,998.99
2016-04-16T10:21:10.804Z,998.93
2016-04-16T10:22:10.839Z,998.89
2016-04-16T10:23:10.857Z,998.95
2016-04-16T10:24:10.891Z,998.89
2016-04-16T10:25:10.910Z,998.87
2016-04-16T10:26:10.928Z,998.93
2016-04-16T10:27:10.946Z,998.93
2016-04-16T10:28:10.980Z,998.94
2016-04-16T10:29:10.998Z,998.97
2016-04-16T10:30:23.753Z,998.94
2016-04-16T10:31:11.050Z,998.98
2016-04-16T10:32:11.069Z,999
2016-04-16T10:33:11.087Z,998.94
2016-04-16T10:34:11.121Z,999.07
2016-04-16T10:35:23.877Z,999.04
2016-04-16T10:36:11.158Z,999.05
2016-04-16T10:37:11.176Z,999.05
2016-04-16T10:38:11.211Z,999.03
2016-04-16T10:39:11.228Z,998.99
2016-04-16T10:40:11.247Z,999.08
2016-04-16T10:41:11.280Z,998.98
2016-04-16T10:42:11.299Z,999.01
2016-04-16T10:43:20.958Z,999.01
2016-04-16T10:44:20.977Z,999.02
2016-04-16T10:45:21.010Z,999.1
2016-04-16T10:46:21.029Z,999.08
2016-04-16T10:47:21.047Z,999.07
2016-04-16T10:48:21.065Z,999.16
2016-04-16T10:49:21.083Z,999.14
2016-04-16T10:50:21.101Z,999.2
2016-04-16T10:51:21.120Z,999.24
2016-04-16T10:52:21.153Z,999.14
2016-04-16T10:53:21.187Z,999.11
2016-04-16T10:54:21.206Z,999.28
2016-04-16T10:55:21.224Z,999.35
2016-04-16T10:56:21.242Z,999.32
2016-04-16T10:57:21.261Z,999.34
2016-04-16T10:58:21.311Z,999.29
2016-04-16T10:59:21.314Z,999.31
2016-04-16T11:00:21.332Z,999.33
2016-04-16T11:01:34.103Z,999.34
2016-04-16T11:02:21.400Z,999.31
2016-04-16T11:03:21.418Z,999.32
2016-04-16T11:04:21.436Z,999.23
2016-04-16T11:05:21.455Z,999.3
2016-04-16T11:06:21.472Z,999.3
2016-04-16T11:07:21.506Z,999.28
2016-04-16T11:08:21.525Z,999.26
2016-04-16T11:09:21.544Z,999.26
2016-04-16T11:10:21.578Z,999.28
2016-04-16T11:11:21.596Z,999.28
2016-04-16T11:12:21.630Z,999.25
2016-04-16T11:13:21.647Z,999.25
2016-04-16T11:14:21.682Z,999.29
2016-04-16T11:15:21.699Z,999.32
2016-04-16T11:16:21.718Z,999.36
2016-04-16T11:17:21.737Z,999.33
2016-04-16T11:18:21.755Z,999.37
2016-04-16T11:19:21.788Z,999.31
2016-04-16T11:20:21.807Z,999.4
2016-04-16T11:21:21.841Z,999.37
2016-04-16T11:22:28.143Z,999.32
2016-04-16T11:23:21.909Z,999.31
2016-04-16T11:24:21.912Z,999.38
2016-04-16T11:25:22.087Z,999.38
2016-04-16T11:26:21.964Z,999.39
2016-04-16T11:27:21.982Z,999.4
2016-04-16T11:28:22.001Z,999.38
2016-04-16T11:29:34.772Z,999.41
2016-04-16T11:30:22.053Z,999.4
2016-04-16T11:31:22.086Z,999.41
2016-04-16T11:32:25.389Z,999.45
2016-04-16T11:33:35.017Z,999.48
2016-04-16T11:34:35.051Z,999.54
2016-04-16T11:35:47.803Z,999.54
2016-04-16T11:36:44.431Z,999.52
2016-04-16T11:37:53.965Z,999.51
2016-04-16T11:38:53.999Z,999.52
2016-04-16T11:39:57.080Z,999.53
2016-04-16T11:40:57.098Z,999.56
2016-04-16T11:41:57.116Z,999.53
2016-04-16T11:43:09.947Z,999.61
2016-04-16T11:44:03.435Z,999.58
2016-04-16T11:45:22.874Z,999.59
2016-04-16T11:45:57.221Z,999.68
2016-04-16T11:48:06.788Z,999.72
2016-04-16T11:49:06.807Z,999.71
2016-04-16T11:50:06.826Z,999.72
2016-04-16T11:51:13.153Z,999.68
2016-04-16T11:52:26.200Z,999.68
2016-04-16T11:54:10.168Z,999.72
2016-04-16T11:55:10.230Z,999.68
2016-04-16T11:56:10.266Z,999.7
2016-04-16T11:57:10.300Z,999.7
2016-04-16T11:58:10.333Z,999.76
2016-04-16T11:59:10.384Z,999.72
2016-04-16T12:00:23.261Z,999.66
2016-04-16T12:01:10.441Z,999.73
2016-04-16T12:02:10.482Z,999.78
2016-04-16T12:03:45.514Z,999.8
2016-04-16T12:04:26.351Z,999.79
2016-04-16T12:05:26.370Z,999.79
2016-04-16T12:06:30.313Z,999.8
2016-04-16T12:08:51.854Z,999.72
2016-04-16T12:09:51.891Z,999.68
2016-04-16T12:10:51.910Z,999.72
2016-04-16T12:12:04.664Z,999.68
2016-04-16T12:14:11.170Z,999.77
2016-04-16T12:14:52.002Z,999.76
2016-04-16T12:15:52.021Z,999.77
2016-04-16T12:16:52.664Z,999.72
2016-04-16T12:17:52.075Z,999.74
2016-04-16T12:19:01.608Z,999.73
2016-04-16T12:20:01.643Z,999.73
2016-04-16T12:21:03.083Z,999.68
2016-04-16T12:22:03.101Z,999.66
2016-04-16T12:23:27.388Z,999.67
2016-04-16T12:24:04.763Z,999.69
2016-04-16T12:25:01.750Z,999.67
2016-04-16T12:26:14.519Z,999.73
2016-04-16T12:27:01.817Z,999.76
2016-04-16T12:28:14.570Z,999.72
2016-04-16T12:29:14.573Z,999.76
2016-04-16T12:30:18.482Z,999.82
2016-04-16T12:31:18.516Z,999.81
2016-04-16T12:32:33.709Z,999.87
2016-04-16T12:33:33.743Z,999.87
2016-04-16T12:34:35.182Z,999.89
2016-04-16T12:35:33.796Z,999.93
2016-04-16T12:36:33.813Z,999.79
2016-04-16T12:37:33.847Z,999.91
2016-04-16T12:38:33.866Z,999.81
2016-04-16T12:39:33.884Z,999.9
2016-04-16T12:40:46.637Z,999.89
2016-04-16T12:41:33.937Z,999.87
2016-04-16T12:42:53.157Z,999.85
2016-04-16T12:43:34.582Z,999.84
2016-04-16T12:44:59.679Z,999.8
2016-04-16T12:46:10.650Z,999.83
2016-04-16T12:46:44.981Z,999.85
2016-04-16T12:48:54.643Z,999.83
2016-04-16T12:51:09.867Z,999.91
2016-04-16T12:52:35.575Z,999.93
2016-04-16T12:53:19.544Z,999.84
2016-04-16T12:54:19.578Z,999.8
2016-04-16T12:55:19.596Z,999.9
2016-04-16T12:56:19.630Z,999.94
2016-04-16T12:57:19.648Z,1000
2016-04-16T12:58:19.666Z,1000
2016-04-16T12:59:25.950Z,999.94
2016-04-16T13:00:19.719Z,999.92
2016-04-16T13:01:38.943Z,999.96
2016-04-16T13:02:22.833Z,1000.01
2016-04-16T13:03:42.057Z,999.98
2016-04-16T13:05:57.485Z,999.91
2016-04-16T13:06:57.504Z,999.86
2016-04-16T13:07:57.521Z,999.74
2016-04-16T13:09:10.290Z,999.82
2016-04-16T13:10:03.840Z,999.85